sensor_id;sensor_type;location;lat;lon;timestamp;P1;P2;P0
61592;PMS5003;47485;51.378;-1.342;2023-05-07T00:01:36;11;10;
61592;PMS5003;47485;51.378;-1.342;2023-05-07T00:04:02;17;11;
61592;PMS5003;47485;51.378;-1.342;2023-05-07T00:06:30;9;9;
61592;PMS5003;47485;51.378;-1.342;2023-05-07T00:08:58;11;10;
61592;PMS5003;47485;51.378;-1.342;2023-05-07T00:11:25;12;11;
61592;PMS5003;47485;51.378;-1.342;2023-05-07T00:13:52;13;12;
61592;PMS5003;47485;51.378;-1.342;2023-05-07T00:16:19;12;12;
61592;PMS5003;47485;51.378;-1.342;2023-05-07T00:18:47;10;10;
61592;PMS5003;47485;51.378;-1.342;2023-05-07T00:21:13;12;10;
61592;PMS5003;47485;51.378;-1.342;2023-05-07T00:23:41;15;12;
61592;PMS5003;47485;51.378;-1.342;2023-05-07T00:26:09;10;9;
61592;PMS5003;47485;51.378;-1.342;2023-05-07T00:28:36;12;10;
61592;PMS5003;47485;51.378;-1.342;2023-05-07T00:31:04;12;12;
61592;PMS5003;47485;51.378;-1.342;2023-05-07T00:33:31;12;10;
61592;PMS5003;47485;51.378;-1.342;2023-05-07T00:35:59;11;10;
61592;PMS5003;47485;51.378;-1.342;2023-05-07T00:38:26;7;7;
61592;PMS5003;47485;51.378;-1.342;2023-05-07T00:40:53;13;12;
61592;PMS5003;47485;51.378;-1.342;2023-05-07T00:43:20;13;13;
61592;PMS5003;47485;51.378;-1.342;2023-05-07T00:45:47;12;11;
61592;PMS5003;47485;51.378;-1.342;2023-05-07T00:48:15;13;11;
61592;PMS5003;47485;51.378;-1.342;2023-05-07T00:50:43;12;12;
61592;PMS5003;47485;51.378;-1.342;2023-05-07T00:53:11;15;13;
61592;PMS5003;47485;51.378;-1.342;2023-05-07T00:55:38;14;12;
61592;PMS5003;47485;51.378;-1.342;2023-05-07T00:58:05;14;12;
61592;PMS5003;47485;51.378;-1.342;2023-05-07T01:00:33;19;14;
61592;PMS5003;47485;51.378;-1.342;2023-05-07T01:03:00;17;13;
61592;PMS5003;47485;51.378;-1.342;2023-05-07T01:05:27;20;15;
61592;PMS5003;47485;51.378;-1.342;2023-05-07T01:07:55;13;11;
61592;PMS5003;47485;51.378;-1.342;2023-05-07T01:10:24;13;12;
61592;PMS5003;47485;51.378;-1.342;2023-05-07T01:12:50;15;14;
61592;PMS5003;47485;51.378;-1.342;2023-05-07T01:15:18;14;14;
61592;PMS5003;47485;51.378;-1.342;2023-05-07T01:17:45;17;12;
61592;PMS5003;47485;51.378;-1.342;2023-05-07T01:20:12;14;11;
61592;PMS5003;47485;51.378;-1.342;2023-05-07T01:22:39;13;12;
61592;PMS5003;47485;51.378;-1.342;2023-05-07T01:25:07;12;12;
61592;PMS5003;47485;51.378;-1.342;2023-05-07T01:27:35;12;10;
61592;PMS5003;47485;51.378;-1.342;2023-05-07T01:30:02;13;12;
61592;PMS5003;47485;51.378;-1.342;2023-05-07T01:32:29;13;12;
61592;PMS5003;47485;51.378;-1.342;2023-05-07T01:34:59;12;12;
61592;PMS5003;47485;51.378;-1.342;2023-05-07T01:37:28;15;13;
61592;PMS5003;47485;51.378;-1.342;2023-05-07T01:39:56;13;12;
61592;PMS5003;47485;51.378;-1.342;2023-05-07T01:42:23;15;14;
61592;PMS5003;47485;51.378;-1.342;2023-05-07T01:44:51;15;13;
61592;PMS5003;47485;51.378;-1.342;2023-05-07T01:47:18;13;13;
61592;PMS5003;47485;51.378;-1.342;2023-05-07T01:49:47;14;14;
61592;PMS5003;47485;51.378;-1.342;2023-05-07T01:52:14;12;12;
61592;PMS5003;47485;51.378;-1.342;2023-05-07T01:54:41;14;14;
61592;PMS5003;47485;51.378;-1.342;2023-05-07T01:57:08;21;18;
61592;PMS5003;47485;51.378;-1.342;2023-05-07T01:59:35;15;13;
61592;PMS5003;47485;51.378;-1.342;2023-05-07T02:02:02;18;15;
61592;PMS5003;47485;51.378;-1.342;2023-05-07T02:04:29;18;17;
61592;PMS5003;47485;51.378;-1.342;2023-05-07T02:06:56;13;13;
61592;PMS5003;47485;51.378;-1.342;2023-05-07T02:09:24;22;19;
61592;PMS5003;47485;51.378;-1.342;2023-05-07T02:11:52;19;16;
61592;PMS5003;47485;51.378;-1.342;2023-05-07T02:14:19;16;16;
61592;PMS5003;47485;51.378;-1.342;2023-05-07T02:16:47;21;17;
61592;PMS5003;47485;51.378;-1.342;2023-05-07T02:19:14;23;21;
61592;PMS5003;47485;51.378;-1.342;2023-05-07T02:21:41;29;25;
61592;PMS5003;47485;51.378;-1.342;2023-05-07T02:24:09;23;23;
61592;PMS5003;47485;51.378;-1.342;2023-05-07T02:26:36;30;23;
61592;PMS5003;47485;51.378;-1.342;2023-05-07T02:29:03;21;20;
61592;PMS5003;47485;51.378;-1.342;2023-05-07T02:31:30;26;23;
61592;PMS5003;47485;51.378;-1.342;2023-05-07T02:33:57;25;23;
61592;PMS5003;47485;51.378;-1.342;2023-05-07T02:36:24;27;23;
61592;PMS5003;47485;51.378;-1.342;2023-05-07T02:38:51;20;20;
61592;PMS5003;47485;51.378;-1.342;2023-05-07T02:41:18;27;21;
61592;PMS5003;47485;51.378;-1.342;2023-05-07T02:43:45;27;23;
61592;PMS5003;47485;51.378;-1.342;2023-05-07T02:46:12;25;21;
61592;PMS5003;47485;51.378;-1.342;2023-05-07T02:48:39;20;17;
61592;PMS5003;47485;51.378;-1.342;2023-05-07T02:51:06;22;20;
61592;PMS5003;47485;51.378;-1.342;2023-05-07T02:53:34;27;21;
61592;PMS5003;47485;51.378;-1.342;2023-05-07T02:56:01;20;17;
61592;PMS5003;47485;51.378;-1.342;2023-05-07T02:58:28;20;20;
61592;PMS5003;47485;51.378;-1.342;2023-05-07T03:00:55;20;19;
61592;PMS5003;47485;51.378;-1.342;2023-05-07T03:03:22;20;19;
61592;PMS5003;47485;51.378;-1.342;2023-05-07T03:05:49;20;18;
61592;PMS5003;47485;51.378;-1.342;2023-05-07T03:08:17;18;16;
61592;PMS5003;47485;51.378;-1.342;2023-05-07T03:10:43;27;24;
61592;PMS5003;47485;51.378;-1.342;2023-05-07T03:13:10;19;19;
61592;PMS5003;47485;51.378;-1.342;2023-05-07T03:15:37;17;17;
61592;PMS5003;47485;51.378;-1.342;2023-05-07T03:18:03;26;22;
61592;PMS5003;47485;51.378;-1.342;2023-05-07T03:20:30;21;19;
61592;PMS5003;47485;51.378;-1.342;2023-05-07T03:22:58;24;21;
61592;PMS5003;47485;51.378;-1.342;2023-05-07T03:25:25;25;21;
61592;PMS5003;47485;51.378;-1.342;2023-05-07T03:27:52;27;23;
61592;PMS5003;47485;51.378;-1.342;2023-05-07T03:30:19;19;19;
61592;PMS5003;47485;51.378;-1.342;2023-05-07T03:32:47;23;22;
61592;PMS5003;47485;51.378;-1.342;2023-05-07T03:35:15;21;19;
61592;PMS5003;47485;51.378;-1.342;2023-05-07T03:37:42;21;20;
61592;PMS5003;47485;51.378;-1.342;2023-05-07T03:40:09;25;22;
61592;PMS5003;47485;51.378;-1.342;2023-05-07T03:42:37;20;17;
61592;PMS5003;47485;51.378;-1.342;2023-05-07T03:45:05;19;18;
61592;PMS5003;47485;51.378;-1.342;2023-05-07T03:47:33;24;20;
61592;PMS5003;47485;51.378;-1.342;2023-05-07T03:49:59;29;24;
61592;PMS5003;47485;51.378;-1.342;2023-05-07T03:52:26;28;25;
61592;PMS5003;47485;51.378;-1.342;2023-05-07T03:54:54;24;22;
61592;PMS5003;47485;51.378;-1.342;2023-05-07T03:57:21;26;25;
61592;PMS5003;47485;51.378;-1.342;2023-05-07T03:59:48;27;24;
61592;PMS5003;47485;51.378;-1.342;2023-05-07T04:02:15;21;18;
61592;PMS5003;47485;51.378;-1.342;2023-05-07T04:04:43;25;20;
61592;PMS5003;47485;51.378;-1.342;2023-05-07T04:07:11;20;19;
61592;PMS5003;47485;51.378;-1.342;2023-05-07T04:09:38;21;19;
61592;PMS5003;47485;51.378;-1.342;2023-05-07T04:12:05;27;24;
61592;PMS5003;47485;51.378;-1.342;2023-05-07T04:14:33;20;19;
61592;PMS5003;47485;51.378;-1.342;2023-05-07T04:17:00;24;24;
61592;PMS5003;47485;51.378;-1.342;2023-05-07T04:19:27;22;21;
61592;PMS5003;47485;51.378;-1.342;2023-05-07T04:21:54;25;21;
61592;PMS5003;47485;51.378;-1.342;2023-05-07T04:24:21;21;19;
61592;PMS5003;47485;51.378;-1.342;2023-05-07T04:26:48;22;18;
61592;PMS5003;47485;51.378;-1.342;2023-05-07T04:29:15;24;23;
61592;PMS5003;47485;51.378;-1.342;2023-05-07T04:31:42;23;18;
61592;PMS5003;47485;51.378;-1.342;2023-05-07T04:34:10;24;21;
61592;PMS5003;47485;51.378;-1.342;2023-05-07T04:36:37;20;18;
61592;PMS5003;47485;51.378;-1.342;2023-05-07T04:39:04;21;20;
61592;PMS5003;47485;51.378;-1.342;2023-05-07T04:41:31;18;18;
61592;PMS5003;47485;51.378;-1.342;2023-05-07T04:43:59;23;17;
61592;PMS5003;47485;51.378;-1.342;2023-05-07T04:46:25;19;17;
61592;PMS5003;47485;51.378;-1.342;2023-05-07T04:48:53;17;16;
61592;PMS5003;47485;51.378;-1.342;2023-05-07T04:51:20;26;21;
61592;PMS5003;47485;51.378;-1.342;2023-05-07T04:53:47;17;16;
61592;PMS5003;47485;51.378;-1.342;2023-05-07T04:56:15;18;17;
61592;PMS5003;47485;51.378;-1.342;2023-05-07T04:58:43;17;17;
61592;PMS5003;47485;51.378;-1.342;2023-05-07T05:01:10;18;17;
61592;PMS5003;47485;51.378;-1.342;2023-05-07T05:03:37;22;19;
61592;PMS5003;47485;51.378;-1.342;2023-05-07T05:06:04;19;19;
61592;PMS5003;47485;51.378;-1.342;2023-05-07T05:08:32;17;16;
61592;PMS5003;47485;51.378;-1.342;2023-05-07T05:10:58;20;16;
61592;PMS5003;47485;51.378;-1.342;2023-05-07T05:13:27;18;17;
61592;PMS5003;47485;51.378;-1.342;2023-05-07T05:15:54;14;14;
61592;PMS5003;47485;51.378;-1.342;2023-05-07T05:18:21;17;16;
61592;PMS5003;47485;51.378;-1.342;2023-05-07T05:20:48;17;16;
61592;PMS5003;47485;51.378;-1.342;2023-05-07T05:23:16;18;15;
61592;PMS5003;47485;51.378;-1.342;2023-05-07T05:25:43;16;15;
61592;PMS5003;47485;51.378;-1.342;2023-05-07T05:28:09;16;16;
61592;PMS5003;47485;51.378;-1.342;2023-05-07T05:30:36;15;13;
61592;PMS5003;47485;51.378;-1.342;2023-05-07T05:33:03;17;17;
61592;PMS5003;47485;51.378;-1.342;2023-05-07T05:35:30;16;15;
61592;PMS5003;47485;51.378;-1.342;2023-05-07T05:37:58;17;17;
61592;PMS5003;47485;51.378;-1.342;2023-05-07T05:40:25;18;17;
61592;PMS5003;47485;51.378;-1.342;2023-05-07T05:42:52;15;14;
61592;PMS5003;47485;51.378;-1.342;2023-05-07T05:45:19;16;14;
61592;PMS5003;47485;51.378;-1.342;2023-05-07T05:47:47;17;15;
61592;PMS5003;47485;51.378;-1.342;2023-05-07T05:50:13;13;12;
61592;PMS5003;47485;51.378;-1.342;2023-05-07T05:52:40;14;12;
61592;PMS5003;47485;51.378;-1.342;2023-05-07T05:55:08;17;13;
61592;PMS5003;47485;51.378;-1.342;2023-05-07T05:57:35;17;17;
61592;PMS5003;47485;51.378;-1.342;2023-05-07T06:00:02;15;14;
61592;PMS5003;47485;51.378;-1.342;2023-05-07T06:02:29;14;14;
61592;PMS5003;47485;51.378;-1.342;2023-05-07T06:04:56;16;14;
61592;PMS5003;47485;51.378;-1.342;2023-05-07T06:07:24;17;16;
61592;PMS5003;47485;51.378;-1.342;2023-05-07T06:09:51;15;15;
61592;PMS5003;47485;51.378;-1.342;2023-05-07T06:12:19;16;15;
61592;PMS5003;47485;51.378;-1.342;2023-05-07T06:14:47;20;20;
61592;PMS5003;47485;51.378;-1.342;2023-05-07T06:17:14;15;15;
61592;PMS5003;47485;51.378;-1.342;2023-05-07T06:19:42;15;14;
61592;PMS5003;47485;51.378;-1.342;2023-05-07T06:22:09;15;15;
61592;PMS5003;47485;51.378;-1.342;2023-05-07T06:24:36;19;18;
61592;PMS5003;47485;51.378;-1.342;2023-05-07T06:27:03;17;15;
61592;PMS5003;47485;51.378;-1.342;2023-05-07T06:29:30;23;18;
61592;PMS5003;47485;51.378;-1.342;2023-05-07T06:31:57;18;17;
61592;PMS5003;47485;51.378;-1.342;2023-05-07T06:34:32;19;17;
61592;PMS5003;47485;51.378;-1.342;2023-05-07T06:36:59;20;18;
61592;PMS5003;47485;51.378;-1.342;2023-05-07T06:39:26;25;20;
61592;PMS5003;47485;51.378;-1.342;2023-05-07T06:41:54;24;21;
61592;PMS5003;47485;51.378;-1.342;2023-05-07T06:44:21;22;21;
61592;PMS5003;47485;51.378;-1.342;2023-05-07T06:46:48;19;16;
61592;PMS5003;47485;51.378;-1.342;2023-05-07T06:49:15;15;14;
61592;PMS5003;47485;51.378;-1.342;2023-05-07T06:51:42;22;19;
61592;PMS5003;47485;51.378;-1.342;2023-05-07T06:54:09;19;19;
61592;PMS5003;47485;51.378;-1.342;2023-05-07T06:56:36;17;15;
61592;PMS5003;47485;51.378;-1.342;2023-05-07T06:59:03;20;20;
61592;PMS5003;47485;51.378;-1.342;2023-05-07T07:01:30;19;15;
61592;PMS5003;47485;51.378;-1.342;2023-05-07T07:03:56;37;34;
61592;PMS5003;47485;51.378;-1.342;2023-05-07T07:06:23;37;29;
61592;PMS5003;47485;51.378;-1.342;2023-05-07T07:08:50;31;29;
61592;PMS5003;47485;51.378;-1.342;2023-05-07T07:11:17;26;22;
61592;PMS5003;47485;51.378;-1.342;2023-05-07T07:13:44;17;17;
61592;PMS5003;47485;51.378;-1.342;2023-05-07T07:16:12;14;13;
61592;PMS5003;47485;51.378;-1.342;2023-05-07T07:18:39;10;9;
61592;PMS5003;47485;51.378;-1.342;2023-05-07T07:21:05;19;15;
61592;PMS5003;47485;51.378;-1.342;2023-05-07T07:23:32;12;11;
61592;PMS5003;47485;51.378;-1.342;2023-05-07T07:25:59;10;10;
61592;PMS5003;47485;51.378;-1.342;2023-05-07T07:28:26;9;9;
61592;PMS5003;47485;51.378;-1.342;2023-05-07T07:30:53;11;11;
61592;PMS5003;47485;51.378;-1.342;2023-05-07T07:33:20;12;12;
61592;PMS5003;47485;51.378;-1.342;2023-05-07T07:35:47;11;10;
61592;PMS5003;47485;51.378;-1.342;2023-05-07T07:38:14;10;7;
61592;PMS5003;47485;51.378;-1.342;2023-05-07T07:40:41;13;12;
61592;PMS5003;47485;51.378;-1.342;2023-05-07T07:43:08;13;11;
61592;PMS5003;47485;51.378;-1.342;2023-05-07T07:45:35;13;11;
61592;PMS5003;47485;51.378;-1.342;2023-05-07T07:48:02;15;13;
61592;PMS5003;47485;51.378;-1.342;2023-05-07T07:50:29;12;12;
61592;PMS5003;47485;51.378;-1.342;2023-05-07T07:52:56;10;10;
61592;PMS5003;47485;51.378;-1.342;2023-05-07T07:55:23;9;9;
61592;PMS5003;47485;51.378;-1.342;2023-05-07T07:57:50;10;9;
61592;PMS5003;47485;51.378;-1.342;2023-05-07T08:00:17;11;11;
61592;PMS5003;47485;51.378;-1.342;2023-05-07T08:02:44;14;12;
61592;PMS5003;47485;51.378;-1.342;2023-05-07T08:05:12;13;12;
61592;PMS5003;47485;51.378;-1.342;2023-05-07T08:07:40;14;12;
61592;PMS5003;47485;51.378;-1.342;2023-05-07T08:10:08;13;11;
61592;PMS5003;47485;51.378;-1.342;2023-05-07T08:12:36;10;9;
61592;PMS5003;47485;51.378;-1.342;2023-05-07T08:15:03;14;12;
61592;PMS5003;47485;51.378;-1.342;2023-05-07T08:17:30;10;10;
61592;PMS5003;47485;51.378;-1.342;2023-05-07T08:19:57;15;12;
61592;PMS5003;47485;51.378;-1.342;2023-05-07T08:22:24;19;18;
61592;PMS5003;47485;51.378;-1.342;2023-05-07T08:24:52;13;12;
61592;PMS5003;47485;51.378;-1.342;2023-05-07T08:27:19;16;14;
61592;PMS5003;47485;51.378;-1.342;2023-05-07T08:29:46;9;8;
61592;PMS5003;47485;51.378;-1.342;2023-05-07T08:32:13;11;9;
61592;PMS5003;47485;51.378;-1.342;2023-05-07T08:34:40;15;11;
61592;PMS5003;47485;51.378;-1.342;2023-05-07T08:37:06;10;9;
61592;PMS5003;47485;51.378;-1.342;2023-05-07T08:39:33;8;8;
61592;PMS5003;47485;51.378;-1.342;2023-05-07T08:42:00;10;10;
61592;PMS5003;47485;51.378;-1.342;2023-05-07T08:44:28;13;8;
61592;PMS5003;47485;51.378;-1.342;2023-05-07T08:47:00;12;12;
61592;PMS5003;47485;51.378;-1.342;2023-05-07T08:49:28;11;11;
61592;PMS5003;47485;51.378;-1.342;2023-05-07T08:51:55;9;9;
61592;PMS5003;47485;51.378;-1.342;2023-05-07T08:54:22;13;11;
61592;PMS5003;47485;51.378;-1.342;2023-05-07T08:56:51;11;11;
61592;PMS5003;47485;51.378;-1.342;2023-05-07T08:59:18;11;11;
61592;PMS5003;47485;51.378;-1.342;2023-05-07T09:01:45;14;12;
61592;PMS5003;47485;51.378;-1.342;2023-05-07T09:04:13;9;9;
61592;PMS5003;47485;51.378;-1.342;2023-05-07T09:06:40;11;10;
61592;PMS5003;47485;51.378;-1.342;2023-05-07T09:09:07;10;9;
61592;PMS5003;47485;51.378;-1.342;2023-05-07T09:11:35;11;9;
61592;PMS5003;47485;51.378;-1.342;2023-05-07T09:14:01;11;10;
61592;PMS5003;47485;51.378;-1.342;2023-05-07T09:16:29;13;12;
61592;PMS5003;47485;51.378;-1.342;2023-05-07T09:18:57;9;9;
61592;PMS5003;47485;51.378;-1.342;2023-05-07T09:21:25;8;8;
61592;PMS5003;47485;51.378;-1.342;2023-05-07T09:23:52;10;8;
61592;PMS5003;47485;51.378;-1.342;2023-05-07T09:26:21;10;9;
61592;PMS5003;47485;51.378;-1.342;2023-05-07T09:28:48;11;10;
61592;PMS5003;47485;51.378;-1.342;2023-05-07T09:31:15;10;9;
61592;PMS5003;47485;51.378;-1.342;2023-05-07T09:33:42;8;8;
61592;PMS5003;47485;51.378;-1.342;2023-05-07T09:36:09;12;11;
61592;PMS5003;47485;51.378;-1.342;2023-05-07T09:38:37;13;12;
61592;PMS5003;47485;51.378;-1.342;2023-05-07T09:41:04;15;13;
61592;PMS5003;47485;51.378;-1.342;2023-05-07T09:43:32;12;9;
61592;PMS5003;47485;51.378;-1.342;2023-05-07T09:46:01;11;11;
61592;PMS5003;47485;51.378;-1.342;2023-05-07T09:48:29;12;11;
61592;PMS5003;47485;51.378;-1.342;2023-05-07T09:50:56;11;11;
61592;PMS5003;47485;51.378;-1.342;2023-05-07T09:53:28;12;11;
61592;PMS5003;47485;51.378;-1.342;2023-05-07T09:55:56;12;10;
61592;PMS5003;47485;51.378;-1.342;2023-05-07T09:58:25;12;12;
61592;PMS5003;47485;51.378;-1.342;2023-05-07T10:00:52;9;9;
61592;PMS5003;47485;51.378;-1.342;2023-05-07T10:03:19;11;9;
61592;PMS5003;47485;51.378;-1.342;2023-05-07T10:05:48;11;10;
61592;PMS5003;47485;51.378;-1.342;2023-05-07T10:08:17;11;11;
61592;PMS5003;47485;51.378;-1.342;2023-05-07T10:10:44;13;12;
61592;PMS5003;47485;51.378;-1.342;2023-05-07T10:13:11;10;9;
61592;PMS5003;47485;51.378;-1.342;2023-05-07T10:15:40;13;12;
61592;PMS5003;47485;51.378;-1.342;2023-05-07T10:18:07;9;9;
61592;PMS5003;47485;51.378;-1.342;2023-05-07T10:20:35;11;10;
61592;PMS5003;47485;51.378;-1.342;2023-05-07T10:23:04;10;10;
61592;PMS5003;47485;51.378;-1.342;2023-05-07T10:25:32;10;10;
61592;PMS5003;47485;51.378;-1.342;2023-05-07T10:28:01;9;7;
61592;PMS5003;47485;51.378;-1.342;2023-05-07T10:30:33;10;8;
61592;PMS5003;47485;51.378;-1.342;2023-05-07T10:33:10;12;8;
61592;PMS5003;47485;51.378;-1.342;2023-05-07T10:35:41;10;9;
61592;PMS5003;47485;51.378;-1.342;2023-05-07T10:38:09;9;9;
61592;PMS5003;47485;51.378;-1.342;2023-05-07T10:40:36;11;9;
61592;PMS5003;47485;51.378;-1.342;2023-05-07T10:43:04;9;9;
61592;PMS5003;47485;51.378;-1.342;2023-05-07T10:45:31;11;10;
61592;PMS5003;47485;51.378;-1.342;2023-05-07T10:48:06;11;10;
61592;PMS5003;47485;51.378;-1.342;2023-05-07T10:50:36;12;10;
61592;PMS5003;47485;51.378;-1.342;2023-05-07T10:53:20;11;10;
61592;PMS5003;47485;51.378;-1.342;2023-05-07T10:55:49;14;11;
61592;PMS5003;47485;51.378;-1.342;2023-05-07T10:58:24;12;11;
61592;PMS5003;47485;51.378;-1.342;2023-05-07T11:00:55;12;10;
61592;PMS5003;47485;51.378;-1.342;2023-05-07T11:03:23;11;9;
61592;PMS5003;47485;51.378;-1.342;2023-05-07T11:06:08;13;11;
61592;PMS5003;47485;51.378;-1.342;2023-05-07T11:08:52;12;8;
61592;PMS5003;47485;51.378;-1.342;2023-05-07T11:11:33;10;8;
61592;PMS5003;47485;51.378;-1.342;2023-05-07T11:14:10;9;8;
61592;PMS5003;47485;51.378;-1.342;2023-05-07T11:16:37;7;7;
61592;PMS5003;47485;51.378;-1.342;2023-05-07T11:19:05;10;9;
61592;PMS5003;47485;51.378;-1.342;2023-05-07T11:21:32;8;8;
61592;PMS5003;47485;51.378;-1.342;2023-05-07T11:24:00;7;6;
61592;PMS5003;47485;51.378;-1.342;2023-05-07T11:26:28;6;6;
61592;PMS5003;47485;51.378;-1.342;2023-05-07T11:28:57;12;10;
61592;PMS5003;47485;51.378;-1.342;2023-05-07T11:31:24;13;13;
61592;PMS5003;47485;51.378;-1.342;2023-05-07T11:33:53;5;5;
61592;PMS5003;47485;51.378;-1.342;2023-05-07T11:36:21;4;4;
61592;PMS5003;47485;51.378;-1.342;2023-05-07T11:38:49;5;5;
61592;PMS5003;47485;51.378;-1.342;2023-05-07T11:41:16;8;6;
61592;PMS5003;47485;51.378;-1.342;2023-05-07T11:43:59;13;12;
61592;PMS5003;47485;51.378;-1.342;2023-05-07T11:46:27;9;6;
61592;PMS5003;47485;51.378;-1.342;2023-05-07T11:48:54;5;5;
61592;PMS5003;47485;51.378;-1.342;2023-05-07T11:51:22;7;6;
61592;PMS5003;47485;51.378;-1.342;2023-05-07T11:53:50;7;7;
61592;PMS5003;47485;51.378;-1.342;2023-05-07T11:56:17;7;6;
61592;PMS5003;47485;51.378;-1.342;2023-05-07T11:58:46;5;5;
61592;PMS5003;47485;51.378;-1.342;2023-05-07T12:01:14;6;6;
61592;PMS5003;47485;51.378;-1.342;2023-05-07T12:03:43;5;5;
61592;PMS5003;47485;51.378;-1.342;2023-05-07T12:06:11;4;4;
61592;PMS5003;47485;51.378;-1.342;2023-05-07T12:08:39;4;2;
61592;PMS5003;47485;51.378;-1.342;2023-05-07T12:11:07;7;5;
61592;PMS5003;47485;51.378;-1.342;2023-05-07T12:13:36;5;5;
61592;PMS5003;47485;51.378;-1.342;2023-05-07T12:16:03;6;6;
61592;PMS5003;47485;51.378;-1.342;2023-05-07T12:18:31;6;6;
61592;PMS5003;47485;51.378;-1.342;2023-05-07T12:20:59;6;5;
61592;PMS5003;47485;51.378;-1.342;2023-05-07T12:23:26;14;11;
61592;PMS5003;47485;51.378;-1.342;2023-05-07T12:25:53;7;7;
61592;PMS5003;47485;51.378;-1.342;2023-05-07T12:28:20;7;7;
61592;PMS5003;47485;51.378;-1.342;2023-05-07T12:30:47;7;5;
61592;PMS5003;47485;51.378;-1.342;2023-05-07T12:33:17;12;12;
61592;PMS5003;47485;51.378;-1.342;2023-05-07T12:35:44;10;10;
61592;PMS5003;47485;51.378;-1.342;2023-05-07T12:38:12;14;13;
61592;PMS5003;47485;51.378;-1.342;2023-05-07T12:40:41;11;9;
61592;PMS5003;47485;51.378;-1.342;2023-05-07T12:43:15;10;10;
61592;PMS5003;47485;51.378;-1.342;2023-05-07T12:45:43;9;9;
61592;PMS5003;47485;51.378;-1.342;2023-05-07T12:48:11;11;10;
61592;PMS5003;47485;51.378;-1.342;2023-05-07T12:50:38;9;8;
61592;PMS5003;47485;51.378;-1.342;2023-05-07T12:53:07;9;8;
61592;PMS5003;47485;51.378;-1.342;2023-05-07T12:55:42;7;7;
61592;PMS5003;47485;51.378;-1.342;2023-05-07T12:58:15;9;8;
61592;PMS5003;47485;51.378;-1.342;2023-05-07T13:00:43;7;7;
61592;PMS5003;47485;51.378;-1.342;2023-05-07T13:03:11;11;11;
61592;PMS5003;47485;51.378;-1.342;2023-05-07T13:05:37;9;9;
61592;PMS5003;47485;51.378;-1.342;2023-05-07T13:08:05;7;7;
61592;PMS5003;47485;51.378;-1.342;2023-05-07T13:10:31;9;8;
61592;PMS5003;47485;51.378;-1.342;2023-05-07T13:12:58;7;5;
61592;PMS5003;47485;51.378;-1.342;2023-05-07T13:15:25;5;5;
61592;PMS5003;47485;51.378;-1.342;2023-05-07T13:17:52;6;6;
61592;PMS5003;47485;51.378;-1.342;2023-05-07T13:20:18;8;7;
61592;PMS5003;47485;51.378;-1.342;2023-05-07T13:22:45;9;8;
61592;PMS5003;47485;51.378;-1.342;2023-05-07T13:25:12;7;6;
61592;PMS5003;47485;51.378;-1.342;2023-05-07T13:27:39;6;6;
61592;PMS5003;47485;51.378;-1.342;2023-05-07T13:30:06;6;6;
61592;PMS5003;47485;51.378;-1.342;2023-05-07T13:32:33;6;6;
61592;PMS5003;47485;51.378;-1.342;2023-05-07T13:35:00;10;7;
61592;PMS5003;47485;51.378;-1.342;2023-05-07T13:37:27;6;6;
61592;PMS5003;47485;51.378;-1.342;2023-05-07T13:39:55;7;6;
61592;PMS5003;47485;51.378;-1.342;2023-05-07T13:42:22;8;8;
61592;PMS5003;47485;51.378;-1.342;2023-05-07T13:44:50;5;5;
61592;PMS5003;47485;51.378;-1.342;2023-05-07T13:47:17;5;5;
61592;PMS5003;47485;51.378;-1.342;2023-05-07T13:49:44;7;7;
61592;PMS5003;47485;51.378;-1.342;2023-05-07T13:52:11;6;4;
61592;PMS5003;47485;51.378;-1.342;2023-05-07T13:54:38;6;6;
61592;PMS5003;47485;51.378;-1.342;2023-05-07T13:57:04;8;6;
61592;PMS5003;47485;51.378;-1.342;2023-05-07T13:59:31;7;7;
61592;PMS5003;47485;51.378;-1.342;2023-05-07T14:01:58;7;7;
61592;PMS5003;47485;51.378;-1.342;2023-05-07T14:04:24;7;6;
61592;PMS5003;47485;51.378;-1.342;2023-05-07T14:06:51;10;10;
61592;PMS5003;47485;51.378;-1.342;2023-05-07T14:09:17;9;8;
61592;PMS5003;47485;51.378;-1.342;2023-05-07T14:11:44;8;8;
61592;PMS5003;47485;51.378;-1.342;2023-05-07T14:14:11;13;13;
61592;PMS5003;47485;51.378;-1.342;2023-05-07T14:16:37;7;7;
61592;PMS5003;47485;51.378;-1.342;2023-05-07T14:19:04;8;7;
61592;PMS5003;47485;51.378;-1.342;2023-05-07T14:21:31;11;9;
61592;PMS5003;47485;51.378;-1.342;2023-05-07T14:23:58;10;8;
61592;PMS5003;47485;51.378;-1.342;2023-05-07T14:26:24;11;10;
61592;PMS5003;47485;51.378;-1.342;2023-05-07T14:28:51;8;8;
61592;PMS5003;47485;51.378;-1.342;2023-05-07T14:31:17;9;9;
61592;PMS5003;47485;51.378;-1.342;2023-05-07T14:33:44;7;7;
61592;PMS5003;47485;51.378;-1.342;2023-05-07T14:36:11;10;10;
61592;PMS5003;47485;51.378;-1.342;2023-05-07T14:38:38;9;8;
61592;PMS5003;47485;51.378;-1.342;2023-05-07T14:41:04;10;10;
61592;PMS5003;47485;51.378;-1.342;2023-05-07T14:43:31;12;10;
61592;PMS5003;47485;51.378;-1.342;2023-05-07T14:45:58;11;10;
61592;PMS5003;47485;51.378;-1.342;2023-05-07T14:48:24;10;9;
61592;PMS5003;47485;51.378;-1.342;2023-05-07T14:50:51;13;12;
61592;PMS5003;47485;51.378;-1.342;2023-05-07T14:53:17;10;10;
61592;PMS5003;47485;51.378;-1.342;2023-05-07T14:55:44;15;13;
61592;PMS5003;47485;51.378;-1.342;2023-05-07T14:58:11;14;11;
61592;PMS5003;47485;51.378;-1.342;2023-05-07T15:00:38;15;14;
61592;PMS5003;47485;51.378;-1.342;2023-05-07T15:03:05;21;19;
61592;PMS5003;47485;51.378;-1.342;2023-05-07T15:05:33;13;12;
61592;PMS5003;47485;51.378;-1.342;2023-05-07T15:08:00;13;11;
61592;PMS5003;47485;51.378;-1.342;2023-05-07T15:10:27;15;14;
61592;PMS5003;47485;51.378;-1.342;2023-05-07T15:12:54;16;13;
61592;PMS5003;47485;51.378;-1.342;2023-05-07T15:15:21;36;36;
61592;PMS5003;47485;51.378;-1.342;2023-05-07T15:17:47;18;15;
61592;PMS5003;47485;51.378;-1.342;2023-05-07T15:20:14;15;14;
61592;PMS5003;47485;51.378;-1.342;2023-05-07T15:22:42;22;18;
61592;PMS5003;47485;51.378;-1.342;2023-05-07T15:25:08;21;18;
61592;PMS5003;47485;51.378;-1.342;2023-05-07T15:27:35;16;15;
61592;PMS5003;47485;51.378;-1.342;2023-05-07T15:30:02;17;16;
61592;PMS5003;47485;51.378;-1.342;2023-05-07T15:32:29;17;15;
61592;PMS5003;47485;51.378;-1.342;2023-05-07T15:34:56;16;15;
61592;PMS5003;47485;51.378;-1.342;2023-05-07T15:37:23;19;18;
61592;PMS5003;47485;51.378;-1.342;2023-05-07T15:39:50;18;18;
61592;PMS5003;47485;51.378;-1.342;2023-05-07T15:42:17;16;15;
61592;PMS5003;47485;51.378;-1.342;2023-05-07T15:44:45;19;16;
61592;PMS5003;47485;51.378;-1.342;2023-05-07T15:47:11;19;16;
61592;PMS5003;47485;51.378;-1.342;2023-05-07T15:49:38;16;14;
61592;PMS5003;47485;51.378;-1.342;2023-05-07T15:52:04;13;13;
61592;PMS5003;47485;51.378;-1.342;2023-05-07T15:54:31;14;14;
61592;PMS5003;47485;51.378;-1.342;2023-05-07T15:56:58;17;12;
61592;PMS5003;47485;51.378;-1.342;2023-05-07T15:59:24;12;10;
61592;PMS5003;47485;51.378;-1.342;2023-05-07T16:01:51;12;12;
61592;PMS5003;47485;51.378;-1.342;2023-05-07T16:04:18;13;12;
61592;PMS5003;47485;51.378;-1.342;2023-05-07T16:06:45;12;11;
61592;PMS5003;47485;51.378;-1.342;2023-05-07T16:09:12;14;11;
61592;PMS5003;47485;51.378;-1.342;2023-05-07T16:11:38;11;11;